createdAt,value
2018-03-12T00:00:16.053Z,76.70
2018-03-12T00:05:18.582Z,76.60
2018-03-12T00:10:21.165Z,76.30
2018-03-12T00:15:23.658Z,76.20
2018-03-12T00:20:26.196Z,76.20
2018-03-12T00:25:28.770Z,76.40
2018-03-12T00:30:31.312Z,76.40
2018-03-12T00:35:33.865Z,76.40
2018-03-12T00:40:37.165Z,77.20
2018-03-12T00:45:39.697Z,77.20
2018-03-12T00:50:42.241Z,76.80
2018-03-12T00:55:44.779Z,76.60
2018-03-12T01:00:47.334Z,77.00
2018-03-12T01:05:50.636Z,76.90
2018-03-12T01:10:53.177Z,76.80
2018-03-12T01:15:55.820Z,77.80
2018-03-12T01:20:58.385Z,78.40
2018-03-12T01:26:00.950Z,78.10
2018-03-12T01:31:03.574Z,78.20
2018-03-12T01:36:06.106Z,79.20
2018-03-12T01:41:08.660Z,78.20
2018-03-12T01:46:11.202Z,78.70
2018-03-12T01:51:13.740Z,77.80
2018-03-12T01:56:17.046Z,79.00
2018-03-12T02:01:20.347Z,77.90
2018-03-12T02:06:22.885Z,77.90
2018-03-12T02:11:25.414Z,77.80
2018-03-12T02:16:27.950Z,77.70
2018-03-12T02:21:30.481Z,77.60
2018-03-12T02:26:33.018Z,77.50
2018-03-12T02:31:35.615Z,77.50
2018-03-12T02:36:38.255Z,77.50
2018-03-12T02:41:40.801Z,77.50
2018-03-12T02:46:43.336Z,78.60
2018-03-12T02:51:45.877Z,78.90
2018-03-12T02:56:48.413Z,78.50
2018-03-12T03:01:50.967Z,78.20
2018-03-12T03:06:53.535Z,78.30
2018-03-12T03:11:56.082Z,78.40
2018-03-12T03:16:58.622Z,78.20
2018-03-12T03:22:01.178Z,78.30
2018-03-12T03:27:03.709Z,78.40
2018-03-12T03:32:06.454Z,78.50
2018-03-12T03:37:09.005Z,78.50
2018-03-12T03:42:11.546Z,79.10
2018-03-12T03:47:14.090Z,78.50
2018-03-12T03:52:16.625Z,78.50
2018-03-12T03:57:19.173Z,79.80
2018-03-12T04:02:21.757Z,82.90
2018-03-12T04:07:25.054Z,82.20
2018-03-12T04:12:27.600Z,82.10
2018-03-12T04:17:30.140Z,82.70
2018-03-12T04:22:32.699Z,81.80
2018-03-12T04:27:35.285Z,81.60
2018-03-12T04:32:37.817Z,81.40
2018-03-12T04:37:40.377Z,81.80
2018-03-12T04:42:42.912Z,82.50
2018-03-12T04:47:45.448Z,82.00
2018-03-12T04:52:47.977Z,81.80
2018-03-12T04:57:50.537Z,81.60
2018-03-12T05:02:53.850Z,81.10
2018-03-12T05:07:57.146Z,81.60
2018-03-12T05:12:59.674Z,81.60
2018-03-12T05:18:02.979Z,80.50
2018-03-12T05:23:06.278Z,80.20
2018-03-12T05:28:08.818Z,80.20
2018-03-12T05:33:11.345Z,80.80
2018-03-12T05:38:13.889Z,80.00
2018-03-12T05:43:16.438Z,80.20
2018-03-12T05:48:19.764Z,80.20
2018-03-12T05:53:23.058Z,84.70
2018-03-12T05:58:25.597Z,84.70
2018-03-12T06:03:28.150Z,86.30
2018-03-12T06:08:30.727Z,86.20
2018-03-12T06:13:34.044Z,88.20
2018-03-12T06:18:37.356Z,88.50
2018-03-12T06:23:40.668Z,90.00
2018-03-12T06:28:43.993Z,90.00
2018-03-12T06:33:46.528Z,89.90
2018-03-12T06:38:49.105Z,90.00
2018-03-12T06:43:51.646Z,89.00
2018-03-12T06:48:54.228Z,90.10
2018-03-12T06:53:56.731Z,89.60
2018-03-12T06:58:59.268Z,90.10
2018-03-12T07:04:01.821Z,90.40
2018-03-12T07:09:04.366Z,90.90
2018-03-12T07:14:07.695Z,91.50
2018-03-12T07:19:11.003Z,91.50
2018-03-12T07:24:13.529Z,91.50
2018-03-12T07:29:16.078Z,91.20
2018-03-12T07:34:18.709Z,91.70
2018-03-12T07:39:22.034Z,91.50
2018-03-12T07:44:24.582Z,91.40
2018-03-12T07:49:27.153Z,91.70
2018-03-12T07:54:29.694Z,91.50
2018-03-12T07:59:32.234Z,91.40
2018-03-12T08:04:34.783Z,91.70
2018-03-12T08:09:37.330Z,92.00
2018-03-12T08:14:39.882Z,92.60
2018-03-12T08:19:42.434Z,92.60
2018-03-12T08:24:44.985Z,92.50
2018-03-12T08:29:47.537Z,92.40
2018-03-12T08:34:50.093Z,92.20
2018-03-12T08:39:52.646Z,92.10
2018-03-12T08:44:55.195Z,91.70
2018-03-12T08:49:58.501Z,92.20
2018-03-12T08:55:01.039Z,92.20
2018-03-12T09:00:03.585Z,91.90
2018-03-12T09:05:06.145Z,92.10
2018-03-12T09:10:08.696Z,91.80
2018-03-12T09:15:11.236Z,91.70
2018-03-12T09:20:13.774Z,91.90
2018-03-12T09:25:16.310Z,91.90
2018-03-12T09:30:18.856Z,91.50
2018-03-12T09:35:21.397Z,91.20
2018-03-12T09:40:24.707Z,91.10
2018-03-12T09:45:27.247Z,91.00
2018-03-12T09:50:29.790Z,90.90
2018-03-12T09:55:32.359Z,90.20
2018-03-12T10:00:34.910Z,90.20
2018-03-12T10:05:37.458Z,90.00
2018-03-12T10:10:40.006Z,88.90
2018-03-12T10:15:43.330Z,88.80
2018-03-12T10:20:46.642Z,88.30
2018-03-12T10:25:49.965Z,87.80
2018-03-12T10:30:53.281Z,87.30
2018-03-12T10:35:55.822Z,87.20
2018-03-12T10:40:58.369Z,87.00
2018-03-12T10:46:01.685Z,86.40
2018-03-12T10:51:04.248Z,86.20
2018-03-12T10:56:06.837Z,86.00
2018-03-12T11:01:09.390Z,85.90
2018-03-12T11:06:18.267Z,85.30
2018-03-12T11:11:20.830Z,85.30
2018-03-12T11:16:24.137Z,84.80
2018-03-12T11:21:26.681Z,84.80
2018-03-12T11:26:29.223Z,84.50
2018-03-12T11:31:32.539Z,84.20
2018-03-12T11:36:35.096Z,84.20
2018-03-12T11:41:37.641Z,83.40
2018-03-12T11:46:40.206Z,83.70
2018-03-12T11:51:42.754Z,83.60
2018-03-12T11:56:46.074Z,83.70
2018-03-12T12:01:48.615Z,83.70
2018-03-12T12:06:51.169Z,83.30
2018-03-12T12:11:53.722Z,83.40
2018-03-12T12:16:56.260Z,83.40
2018-03-12T12:21:59.582Z,83.90
2018-03-12T12:27:02.926Z,84.00
2018-03-12T12:32:05.466Z,84.00
2018-03-12T12:37:08.014Z,84.20
2018-03-12T12:42:11.327Z,84.40
2018-03-12T12:47:13.872Z,84.40
2018-03-12T12:52:16.410Z,84.20
2018-03-12T12:57:19.726Z,84.30
2018-03-12T13:02:22.283Z,84.20
2018-03-12T13:07:24.832Z,83.90
2018-03-12T13:12:27.378Z,83.80
2018-03-12T13:17:29.923Z,83.80
2018-03-12T13:22:32.461Z,83.70
2018-03-12T13:27:35.012Z,83.40
2018-03-12T13:32:38.367Z,83.00
2018-03-12T13:37:41.685Z,83.00
2018-03-12T13:42:44.234Z,83.00
2018-03-12T13:47:46.782Z,82.80
2018-03-12T13:52:49.388Z,82.30
2018-03-12T13:57:51.904Z,82.60
2018-03-12T14:02:54.464Z,82.80
2018-03-12T14:07:57.013Z,82.30
2018-03-12T14:12:59.590Z,82.30
2018-03-12T14:18:02.190Z,81.60
2018-03-12T14:23:04.737Z,81.30
2018-03-12T14:28:08.069Z,81.10
2018-03-12T14:33:10.634Z,81.20
2018-03-12T14:38:13.165Z,81.30
2018-03-12T14:43:15.706Z,80.80
2018-03-12T14:48:18.271Z,79.10
2018-03-12T14:53:21.560Z,80.20
2018-03-12T14:58:24.866Z,79.90
2018-03-12T15:03:28.183Z,78.90
2018-03-12T15:08:31.494Z,78.90
2018-03-12T15:13:34.057Z,78.90
2018-03-12T15:18:36.617Z,77.30
2018-03-12T15:23:39.166Z,77.20
2018-03-12T15:28:42.498Z,78.00
2018-03-12T15:33:45.034Z,78.00
2018-03-12T15:38:47.596Z,77.10
2018-03-12T15:43:50.134Z,77.00
2018-03-12T15:48:52.713Z,77.80
2018-03-12T15:53:56.025Z,77.70
2018-03-12T15:58:59.322Z,77.70
2018-03-12T16:04:01.850Z,77.70
2018-03-12T16:09:05.154Z,78.10
2018-03-12T16:14:08.465Z,78.40
2018-03-12T16:19:11.772Z,77.90
2018-03-12T16:24:14.310Z,77.80
2018-03-12T16:29:16.854Z,77.40
2018-03-12T16:34:19.399Z,77.60
2018-03-12T16:39:21.934Z,77.70
2018-03-12T16:44:24.502Z,77.60
2018-03-12T16:49:27.050Z,77.80
2018-03-12T16:54:33.292Z,77.70
2018-03-12T16:59:32.126Z,77.70
2018-03-12T17:04:34.669Z,77.60
2018-03-12T17:09:37.990Z,78.50
2018-03-12T17:14:41.314Z,77.80
2018-03-12T17:19:43.878Z,77.70
2018-03-12T17:24:46.433Z,78.20
2018-03-12T17:29:48.987Z,78.40
2018-03-12T17:34:51.542Z,78.70
2018-03-12T17:39:54.109Z,79.00
2018-03-12T17:44:56.661Z,79.20
2018-03-12T17:49:59.204Z,79.40
2018-03-12T17:55:02.533Z,79.40
2018-03-12T18:00:05.073Z,79.40
2018-03-12T18:05:07.690Z,79.50
2018-03-12T18:10:10.251Z,79.70
2018-03-12T18:15:12.806Z,79.80
2018-03-12T18:20:16.156Z,80.20
2018-03-12T18:25:18.729Z,80.10
2018-03-12T18:30:22.073Z,80.40
2018-03-12T18:35:24.686Z,80.30
2018-03-12T18:40:27.250Z,80.30
2018-03-12T18:45:29.802Z,80.00
2018-03-12T18:50:32.344Z,80.00
2018-03-12T18:55:35.659Z,80.20
2018-03-12T19:00:38.209Z,80.20
2018-03-12T19:05:40.758Z,80.30
2018-03-12T19:10:43.318Z,80.20
2018-03-12T19:15:45.862Z,81.00
2018-03-12T19:20:48.418Z,80.90
2018-03-12T19:25:50.984Z,80.60
2018-03-12T19:30:53.524Z,80.50
2018-03-12T19:35:56.075Z,80.90
2018-03-12T19:40:58.639Z,80.80
2018-03-12T19:46:01.952Z,80.70
2018-03-12T19:51:05.268Z,80.60
2018-03-12T19:56:08.578Z,80.30
2018-03-12T20:01:11.108Z,80.30
2018-03-12T20:06:13.650Z,80.30
2018-03-12T20:11:16.182Z,80.30
2018-03-12T20:16:19.531Z,80.40
2018-03-12T20:21:22.075Z,80.20
2018-03-12T20:26:24.644Z,80.40
2018-03-12T20:31:27.202Z,80.30
2018-03-12T20:36:30.506Z,79.80
2018-03-12T20:41:33.049Z,79.80
2018-03-12T20:46:35.592Z,79.60
2018-03-12T20:51:38.105Z,79.70
2018-03-12T20:56:40.640Z,79.80
2018-03-12T21:01:43.179Z,80.10
2018-03-12T21:06:45.725Z,80.20
2018-03-12T21:11:48.250Z,80.40
2018-03-12T21:16:50.790Z,80.50
2018-03-12T21:21:54.093Z,80.90
2018-03-12T21:26:56.635Z,80.80
2018-03-12T21:31:59.185Z,80.90
2018-03-12T21:37:01.733Z,80.60
2018-03-12T21:42:04.269Z,80.80
2018-03-12T21:47:06.802Z,81.10
2018-03-12T21:52:10.130Z,81.00
2018-03-12T21:57:12.666Z,81.00
2018-03-12T22:02:15.226Z,81.20
2018-03-12T22:07:17.768Z,81.10
2018-03-12T22:12:20.287Z,81.00
2018-03-12T22:17:22.842Z,81.00
2018-03-12T22:22:25.367Z,81.20
2018-03-12T22:27:27.894Z,81.10
2018-03-12T22:32:30.427Z,81.00
2018-03-12T22:37:32.962Z,81.40
2018-03-12T22:42:35.552Z,81.30
2018-03-12T22:47:38.807Z,81.50
2018-03-12T22:52:41.347Z,81.40
2018-03-12T22:57:43.882Z,81.10
2018-03-12T23:02:46.413Z,81.50
2018-03-12T23:07:49.730Z,81.70
2018-03-12T23:12:53.025Z,81.80
2018-03-12T23:17:55.561Z,81.80
2018-03-12T23:22:58.098Z,81.60
2018-03-12T23:28:00.631Z,82.00
2018-03-12T23:33:03.158Z,82.00
2018-03-12T23:38:05.691Z,81.70
2018-03-12T23:43:08.230Z,82.00
2018-03-12T23:48:11.538Z,82.10
2018-03-12T23:53:14.079Z,82.10
2018-03-12T23:58:16.609Z,81.90
